sensor_id;sensor_type;location;lat;lon;timestamp;P1;durP1;ratioP1;P2;durP2;ratioP2
50443;SDS011;36370;52.216;21.142;2022-07-29T00:00:39;12.25;;;5.68;;
50443;SDS011;36370;52.216;21.142;2022-07-29T00:04:41;9.30;;;5.10;;
50443;SDS011;36370;52.216;21.142;2022-07-29T00:08:43;10.32;;;4.80;;
50443;SDS011;36370;52.216;21.142;2022-07-29T00:12:45;11.65;;;5.70;;
50443;SDS011;36370;52.216;21.142;2022-07-29T00:16:49;10.63;;;5.80;;
50443;SDS011;36370;52.216;21.142;2022-07-29T00:20:51;11.55;;;5.35;;
50443;SDS011;36370;52.216;21.142;2022-07-29T00:24:53;11.27;;;5.53;;
50443;SDS011;36370;52.216;21.142;2022-07-29T00:28:55;11.50;;;6.00;;
50443;SDS011;36370;52.216;21.142;2022-07-29T00:33:18;8.38;;;5.55;;
50443;SDS011;36370;52.216;21.142;2022-07-29T00:37:20;8.40;;;5.35;;
50443;SDS011;36370;52.216;21.142;2022-07-29T00:41:23;7.45;;;4.63;;
50443;SDS011;36370;52.216;21.142;2022-07-29T00:45:25;8.98;;;5.10;;
50443;SDS011;36370;52.216;21.142;2022-07-29T00:49:27;6.85;;;4.25;;
50443;SDS011;36370;52.216;21.142;2022-07-29T00:53:30;7.28;;;4.35;;
50443;SDS011;36370;52.216;21.142;2022-07-29T00:57:33;9.68;;;4.90;;
50443;SDS011;36370;52.216;21.142;2022-07-29T01:01:36;10.43;;;4.95;;
50443;SDS011;36370;52.216;21.142;2022-07-29T01:05:38;5.28;;;3.67;;
50443;SDS011;36370;52.216;21.142;2022-07-29T01:09:53;10.40;;;4.22;;
50443;SDS011;36370;52.216;21.142;2022-07-29T01:13:57;11.13;;;4.13;;
50443;SDS011;36370;52.216;21.142;2022-07-29T01:18:01;8.55;;;3.85;;
50443;SDS011;36370;52.216;21.142;2022-07-29T01:22:31;7.10;;;3.92;;
50443;SDS011;36370;52.216;21.142;2022-07-29T01:26:52;5.22;;;3.13;;
50443;SDS011;36370;52.216;21.142;2022-07-29T01:31:01;11.00;;;3.95;;
50443;SDS011;36370;52.216;21.142;2022-07-29T01:35:09;8.32;;;3.70;;
50443;SDS011;36370;52.216;21.142;2022-07-29T01:39:21;5.97;;;3.80;;
50443;SDS011;36370;52.216;21.142;2022-07-29T01:43:31;9.25;;;4.05;;
50443;SDS011;36370;52.216;21.142;2022-07-29T01:47:40;5.63;;;3.67;;
50443;SDS011;36370;52.216;21.142;2022-07-29T01:52:08;9.13;;;4.10;;
50443;SDS011;36370;52.216;21.142;2022-07-29T01:56:21;7.68;;;3.70;;
50443;SDS011;36370;52.216;21.142;2022-07-29T02:00:25;7.20;;;3.92;;
50443;SDS011;36370;52.216;21.142;2022-07-29T02:04:29;5.53;;;3.28;;
50443;SDS011;36370;52.216;21.142;2022-07-29T02:08:35;11.63;;;5.05;;
50443;SDS011;36370;52.216;21.142;2022-07-29T02:12:40;4.55;;;3.03;;
50443;SDS011;36370;52.216;21.142;2022-07-29T02:16:52;8.93;;;3.70;;
50443;SDS011;36370;52.216;21.142;2022-07-29T02:20:58;7.05;;;3.40;;
50443;SDS011;36370;52.216;21.142;2022-07-29T02:25:03;4.18;;;2.88;;
50443;SDS011;36370;52.216;21.142;2022-07-29T02:29:15;7.97;;;4.20;;
50443;SDS011;36370;52.216;21.142;2022-07-29T02:33:18;7.60;;;3.35;;
50443;SDS011;36370;52.216;21.142;2022-07-29T02:37:23;9.30;;;3.85;;
50443;SDS011;36370;52.216;21.142;2022-07-29T02:41:38;10.27;;;4.35;;
50443;SDS011;36370;52.216;21.142;2022-07-29T02:45:49;10.40;;;4.22;;
50443;SDS011;36370;52.216;21.142;2022-07-29T02:49:55;12.70;;;4.40;;
50443;SDS011;36370;52.216;21.142;2022-07-29T02:54:14;9.20;;;3.95;;
50443;SDS011;36370;52.216;21.142;2022-07-29T03:02:33;10.20;;;4.78;;
50443;SDS011;36370;52.216;21.142;2022-07-29T03:06:42;6.28;;;3.90;;
50443;SDS011;36370;52.216;21.142;2022-07-29T03:10:46;7.72;;;4.70;;
50443;SDS011;36370;52.216;21.142;2022-07-29T03:14:49;5.85;;;3.85;;
50443;SDS011;36370;52.216;21.142;2022-07-29T03:18:53;7.10;;;3.25;;
50443;SDS011;36370;52.216;21.142;2022-07-29T03:22:56;9.63;;;3.88;;
50443;SDS011;36370;52.216;21.142;2022-07-29T03:26:58;5.47;;;3.15;;
50443;SDS011;36370;52.216;21.142;2022-07-29T03:31:01;16.23;;;4.25;;
50443;SDS011;36370;52.216;21.142;2022-07-29T03:35:06;7.35;;;3.80;;
50443;SDS011;36370;52.216;21.142;2022-07-29T03:39:09;11.10;;;4.28;;
50443;SDS011;36370;52.216;21.142;2022-07-29T03:43:14;6.18;;;3.05;;
50443;SDS011;36370;52.216;21.142;2022-07-29T03:47:18;7.40;;;3.72;;
50443;SDS011;36370;52.216;21.142;2022-07-29T03:51:45;8.73;;;4.00;;
50443;SDS011;36370;52.216;21.142;2022-07-29T03:55:48;5.07;;;3.50;;
50443;SDS011;36370;52.216;21.142;2022-07-29T03:59:55;11.95;;;3.38;;
50443;SDS011;36370;52.216;21.142;2022-07-29T04:03:59;7.00;;;3.90;;
50443;SDS011;36370;52.216;21.142;2022-07-29T04:08:03;8.98;;;3.97;;
50443;SDS011;36370;52.216;21.142;2022-07-29T04:12:06;7.80;;;3.35;;
50443;SDS011;36370;52.216;21.142;2022-07-29T04:16:08;4.82;;;3.78;;
50443;SDS011;36370;52.216;21.142;2022-07-29T04:20:10;10.50;;;4.18;;
50443;SDS011;36370;52.216;21.142;2022-07-29T04:24:16;5.05;;;3.30;;
50443;SDS011;36370;52.216;21.142;2022-07-29T04:28:19;7.82;;;3.20;;
50443;SDS011;36370;52.216;21.142;2022-07-29T04:32:22;5.60;;;3.25;;
50443;SDS011;36370;52.216;21.142;2022-07-29T04:36:24;6.32;;;3.22;;
50443;SDS011;36370;52.216;21.142;2022-07-29T04:40:30;4.75;;;3.08;;
50443;SDS011;36370;52.216;21.142;2022-07-29T04:44:35;6.28;;;2.88;;
50443;SDS011;36370;52.216;21.142;2022-07-29T04:48:40;3.67;;;2.10;;
50443;SDS011;36370;52.216;21.142;2022-07-29T04:52:42;6.32;;;2.55;;
50443;SDS011;36370;52.216;21.142;2022-07-29T04:56:45;2.28;;;1.90;;
50443;SDS011;36370;52.216;21.142;2022-07-29T05:00:48;4.28;;;2.00;;
50443;SDS011;36370;52.216;21.142;2022-07-29T05:04:51;3.78;;;2.00;;
50443;SDS011;36370;52.216;21.142;2022-07-29T05:08:53;6.65;;;2.03;;
50443;SDS011;36370;52.216;21.142;2022-07-29T05:12:55;6.07;;;1.80;;
50443;SDS011;36370;52.216;21.142;2022-07-29T05:16:57;4.55;;;2.63;;
50443;SDS011;36370;52.216;21.142;2022-07-29T05:21:00;2.85;;;1.38;;
50443;SDS011;36370;52.216;21.142;2022-07-29T05:25:03;5.25;;;1.73;;
50443;SDS011;36370;52.216;21.142;2022-07-29T05:29:10;2.88;;;1.55;;
50443;SDS011;36370;52.216;21.142;2022-07-29T05:33:33;5.93;;;1.42;;
50443;SDS011;36370;52.216;21.142;2022-07-29T05:37:38;5.88;;;1.63;;
50443;SDS011;36370;52.216;21.142;2022-07-29T05:41:40;2.85;;;1.48;;
50443;SDS011;36370;52.216;21.142;2022-07-29T05:45:43;7.57;;;1.60;;
50443;SDS011;36370;52.216;21.142;2022-07-29T05:49:51;4.72;;;1.92;;
50443;SDS011;36370;52.216;21.142;2022-07-29T05:53:53;2.75;;;1.20;;
50443;SDS011;36370;52.216;21.142;2022-07-29T05:57:55;3.10;;;1.50;;
50443;SDS011;36370;52.216;21.142;2022-07-29T06:01:57;3.10;;;1.80;;
50443;SDS011;36370;52.216;21.142;2022-07-29T06:06:00;5.78;;;1.42;;
50443;SDS011;36370;52.216;21.142;2022-07-29T06:10:02;3.28;;;0.93;;
50443;SDS011;36370;52.216;21.142;2022-07-29T06:14:04;4.40;;;1.17;;
50443;SDS011;36370;52.216;21.142;2022-07-29T06:18:06;2.38;;;1.00;;
50443;SDS011;36370;52.216;21.142;2022-07-29T06:22:11;4.22;;;1.17;;
50443;SDS011;36370;52.216;21.142;2022-07-29T06:26:14;1.15;;;0.95;;
50443;SDS011;36370;52.216;21.142;2022-07-29T06:30:16;5.28;;;0.90;;
50443;SDS011;36370;52.216;21.142;2022-07-29T06:34:19;1.35;;;0.65;;
50443;SDS011;36370;52.216;21.142;2022-07-29T06:38:21;2.22;;;0.75;;
50443;SDS011;36370;52.216;21.142;2022-07-29T06:42:32;3.30;;;1.05;;
50443;SDS011;36370;52.216;21.142;2022-07-29T06:46:34;1.88;;;0.88;;
50443;SDS011;36370;52.216;21.142;2022-07-29T06:50:37;4.70;;;1.05;;
50443;SDS011;36370;52.216;21.142;2022-07-29T06:54:39;2.85;;;1.00;;
50443;SDS011;36370;52.216;21.142;2022-07-29T06:58:49;2.50;;;0.93;;
50443;SDS011;36370;52.216;21.142;2022-07-29T07:02:51;3.17;;;0.80;;
50443;SDS011;36370;52.216;21.142;2022-07-29T07:06:54;3.40;;;0.80;;
50443;SDS011;36370;52.216;21.142;2022-07-29T07:10:57;4.63;;;1.05;;
50443;SDS011;36370;52.216;21.142;2022-07-29T07:14:59;3.20;;;0.90;;
50443;SDS011;36370;52.216;21.142;2022-07-29T07:19:01;1.38;;;0.60;;
50443;SDS011;36370;52.216;21.142;2022-07-29T07:23:04;3.38;;;1.25;;
50443;SDS011;36370;52.216;21.142;2022-07-29T07:27:07;2.38;;;0.77;;
50443;SDS011;36370;52.216;21.142;2022-07-29T07:31:09;6.10;;;0.98;;
50443;SDS011;36370;52.216;21.142;2022-07-29T07:35:13;3.30;;;0.98;;
50443;SDS011;36370;52.216;21.142;2022-07-29T07:39:15;3.75;;;0.80;;
50443;SDS011;36370;52.216;21.142;2022-07-29T07:43:18;2.13;;;0.82;;
50443;SDS011;36370;52.216;21.142;2022-07-29T07:47:20;2.60;;;0.93;;
50443;SDS011;36370;52.216;21.142;2022-07-29T07:51:22;1.85;;;0.60;;
50443;SDS011;36370;52.216;21.142;2022-07-29T07:55:25;4.05;;;1.00;;
50443;SDS011;36370;52.216;21.142;2022-07-29T07:59:27;4.25;;;1.00;;
50443;SDS011;36370;52.216;21.142;2022-07-29T08:03:31;7.38;;;1.17;;
50443;SDS011;36370;52.216;21.142;2022-07-29T08:07:34;3.17;;;0.80;;
50443;SDS011;36370;52.216;21.142;2022-07-29T08:11:36;1.38;;;0.73;;
50443;SDS011;36370;52.216;21.142;2022-07-29T08:15:52;3.33;;;0.95;;
50443;SDS011;36370;52.216;21.142;2022-07-29T08:20:13;3.60;;;0.70;;
50443;SDS011;36370;52.216;21.142;2022-07-29T08:24:15;3.38;;;1.33;;
50443;SDS011;36370;52.216;21.142;2022-07-29T08:28:39;5.15;;;1.10;;
50443;SDS011;36370;52.216;21.142;2022-07-29T08:32:53;0.77;;;0.68;;
50443;SDS011;36370;52.216;21.142;2022-07-29T08:36:57;1.80;;;0.82;;
50443;SDS011;36370;52.216;21.142;2022-07-29T08:41:00;5.15;;;1.10;;
50443;SDS011;36370;52.216;21.142;2022-07-29T08:45:03;3.33;;;1.15;;
50443;SDS011;36370;52.216;21.142;2022-07-29T08:49:06;3.63;;;1.05;;
50443;SDS011;36370;52.216;21.142;2022-07-29T08:53:13;4.43;;;1.15;;
50443;SDS011;36370;52.216;21.142;2022-07-29T08:57:16;5.38;;;0.82;;
50443;SDS011;36370;52.216;21.142;2022-07-29T09:01:21;4.80;;;1.20;;
50443;SDS011;36370;52.216;21.142;2022-07-29T09:05:42;1.73;;;0.80;;
50443;SDS011;36370;52.216;21.142;2022-07-29T09:09:49;2.92;;;1.10;;
50443;SDS011;36370;52.216;21.142;2022-07-29T09:13:52;1.75;;;0.68;;
50443;SDS011;36370;52.216;21.142;2022-07-29T09:17:55;3.83;;;0.77;;
50443;SDS011;36370;52.216;21.142;2022-07-29T09:21:59;4.88;;;0.75;;
50443;SDS011;36370;52.216;21.142;2022-07-29T09:26:05;1.90;;;0.63;;
50443;SDS011;36370;52.216;21.142;2022-07-29T09:30:09;2.15;;;0.70;;
50443;SDS011;36370;52.216;21.142;2022-07-29T09:34:13;3.67;;;0.80;;
50443;SDS011;36370;52.216;21.142;2022-07-29T09:38:17;2.97;;;0.80;;
50443;SDS011;36370;52.216;21.142;2022-07-29T09:42:29;3.72;;;0.80;;
50443;SDS011;36370;52.216;21.142;2022-07-29T09:46:31;3.90;;;0.90;;
50443;SDS011;36370;52.216;21.142;2022-07-29T09:50:39;1.83;;;0.77;;
50443;SDS011;36370;52.216;21.142;2022-07-29T09:54:42;5.07;;;1.20;;
50443;SDS011;36370;52.216;21.142;2022-07-29T09:58:45;3.10;;;1.08;;
50443;SDS011;36370;52.216;21.142;2022-07-29T10:02:47;3.10;;;0.90;;
50443;SDS011;36370;52.216;21.142;2022-07-29T10:11:09;4.28;;;0.98;;
50443;SDS011;36370;52.216;21.142;2022-07-29T10:15:14;3.17;;;1.00;;
50443;SDS011;36370;52.216;21.142;2022-07-29T10:19:17;5.07;;;0.95;;
50443;SDS011;36370;52.216;21.142;2022-07-29T10:23:20;3.65;;;0.95;;
50443;SDS011;36370;52.216;21.142;2022-07-29T10:27:22;4.60;;;0.95;;
50443;SDS011;36370;52.216;21.142;2022-07-29T10:31:28;1.67;;;0.50;;
50443;SDS011;36370;52.216;21.142;2022-07-29T10:44:51;3.03;;;0.90;;
50443;SDS011;36370;52.216;21.142;2022-07-29T10:49:05;4.30;;;1.00;;
50443;SDS011;36370;52.216;21.142;2022-07-29T11:11:37;2.38;;;0.88;;
50443;SDS011;36370;52.216;21.142;2022-07-29T11:15:52;3.53;;;0.73;;
50443;SDS011;36370;52.216;21.142;2022-07-29T11:24:33;1.67;;;0.73;;
50443;SDS011;36370;52.216;21.142;2022-07-29T11:28:37;4.53;;;0.57;;
50443;SDS011;36370;52.216;21.142;2022-07-29T11:32:50;0.65;;;0.45;;
50443;SDS011;36370;52.216;21.142;2022-07-29T11:45:45;2.55;;;0.80;;
50443;SDS011;36370;52.216;21.142;2022-07-29T11:49:49;1.83;;;0.70;;
50443;SDS011;36370;52.216;21.142;2022-07-29T11:54:00;8.05;;;1.20;;
50443;SDS011;36370;52.216;21.142;2022-07-29T11:58:06;1.38;;;0.50;;
50443;SDS011;36370;52.216;21.142;2022-07-29T12:02:11;2.60;;;0.82;;
50443;SDS011;36370;52.216;21.142;2022-07-29T12:06:35;3.97;;;0.77;;
50443;SDS011;36370;52.216;21.142;2022-07-29T12:10:38;2.53;;;0.75;;
50443;SDS011;36370;52.216;21.142;2022-07-29T12:14:42;4.25;;;0.77;;
50443;SDS011;36370;52.216;21.142;2022-07-29T12:18:58;2.33;;;0.80;;
50443;SDS011;36370;52.216;21.142;2022-07-29T12:23:06;1.38;;;0.60;;
50443;SDS011;36370;52.216;21.142;2022-07-29T12:27:17;1.60;;;0.65;;
50443;SDS011;36370;52.216;21.142;2022-07-29T12:31:30;1.65;;;0.60;;
50443;SDS011;36370;52.216;21.142;2022-07-29T12:35:46;1.83;;;0.63;;
50443;SDS011;36370;52.216;21.142;2022-07-29T12:40:09;5.55;;;1.35;;
50443;SDS011;36370;52.216;21.142;2022-07-29T12:44:15;7.13;;;1.00;;
50443;SDS011;36370;52.216;21.142;2022-07-29T12:48:32;2.38;;;0.80;;
50443;SDS011;36370;52.216;21.142;2022-07-29T12:52:38;1.88;;;0.73;;
50443;SDS011;36370;52.216;21.142;2022-07-29T12:56:42;0.77;;;0.60;;
50443;SDS011;36370;52.216;21.142;2022-07-29T13:00:46;3.80;;;0.93;;
50443;SDS011;36370;52.216;21.142;2022-07-29T13:04:55;1.83;;;0.40;;
50443;SDS011;36370;52.216;21.142;2022-07-29T13:09:03;3.45;;;0.73;;
50443;SDS011;36370;52.216;21.142;2022-07-29T13:13:10;3.20;;;1.05;;
50443;SDS011;36370;52.216;21.142;2022-07-29T13:17:14;1.90;;;0.75;;
50443;SDS011;36370;52.216;21.142;2022-07-29T13:21:22;3.33;;;0.90;;
50443;SDS011;36370;52.216;21.142;2022-07-29T13:25:25;1.15;;;0.60;;
50443;SDS011;36370;52.216;21.142;2022-07-29T13:29:30;3.80;;;0.90;;
50443;SDS011;36370;52.216;21.142;2022-07-29T13:33:32;4.00;;;0.90;;
50443;SDS011;36370;52.216;21.142;2022-07-29T13:37:35;3.15;;;0.70;;
50443;SDS011;36370;52.216;21.142;2022-07-29T13:41:40;2.20;;;0.70;;
50443;SDS011;36370;52.216;21.142;2022-07-29T13:45:42;1.95;;;0.50;;
50443;SDS011;36370;52.216;21.142;2022-07-29T13:49:45;5.43;;;0.73;;
50443;SDS011;36370;52.216;21.142;2022-07-29T13:53:47;2.63;;;0.65;;
50443;SDS011;36370;52.216;21.142;2022-07-29T13:57:49;2.08;;;0.57;;
50443;SDS011;36370;52.216;21.142;2022-07-29T14:01:52;0.93;;;0.60;;
50443;SDS011;36370;52.216;21.142;2022-07-29T14:05:54;3.30;;;0.50;;
50443;SDS011;36370;52.216;21.142;2022-07-29T14:09:57;3.85;;;0.82;;
50443;SDS011;36370;52.216;21.142;2022-07-29T14:14:00;4.95;;;0.70;;
50443;SDS011;36370;52.216;21.142;2022-07-29T14:18:02;2.80;;;0.70;;
50443;SDS011;36370;52.216;21.142;2022-07-29T14:22:06;1.92;;;0.32;;
50443;SDS011;36370;52.216;21.142;2022-07-29T14:26:09;3.33;;;0.60;;
50443;SDS011;36370;52.216;21.142;2022-07-29T14:30:22;2.72;;;0.98;;
50443;SDS011;36370;52.216;21.142;2022-07-29T14:34:25;1.50;;;0.47;;
50443;SDS011;36370;52.216;21.142;2022-07-29T14:38:27;4.30;;;0.52;;
50443;SDS011;36370;52.216;21.142;2022-07-29T14:42:29;3.45;;;1.20;;
50443;SDS011;36370;52.216;21.142;2022-07-29T14:46:35;1.95;;;0.65;;
50443;SDS011;36370;52.216;21.142;2022-07-29T14:50:38;2.63;;;0.70;;
50443;SDS011;36370;52.216;21.142;2022-07-29T14:54:40;1.08;;;0.65;;
50443;SDS011;36370;52.216;21.142;2022-07-29T14:58:42;2.75;;;0.70;;
50443;SDS011;36370;52.216;21.142;2022-07-29T15:02:52;1.08;;;0.70;;
50443;SDS011;36370;52.216;21.142;2022-07-29T15:07:03;2.17;;;0.65;;
50443;SDS011;36370;52.216;21.142;2022-07-29T15:11:06;5.85;;;1.20;;
50443;SDS011;36370;52.216;21.142;2022-07-29T15:15:08;11.35;;;5.97;;
50443;SDS011;36370;52.216;21.142;2022-07-29T15:19:10;5.25;;;0.93;;
50443;SDS011;36370;52.216;21.142;2022-07-29T15:23:12;1.83;;;1.02;;
50443;SDS011;36370;52.216;21.142;2022-07-29T15:27:15;5.25;;;0.60;;
50443;SDS011;36370;52.216;21.142;2022-07-29T15:31:17;8.32;;;0.70;;
50443;SDS011;36370;52.216;21.142;2022-07-29T15:35:22;4.38;;;0.80;;
50443;SDS011;36370;52.216;21.142;2022-07-29T15:39:25;2.53;;;0.70;;
50443;SDS011;36370;52.216;21.142;2022-07-29T15:43:27;4.20;;;0.77;;
50443;SDS011;36370;52.216;21.142;2022-07-29T15:47:30;7.00;;;1.00;;
50443;SDS011;36370;52.216;21.142;2022-07-29T15:51:32;3.22;;;0.63;;
50443;SDS011;36370;52.216;21.142;2022-07-29T15:55:35;1.50;;;0.70;;
50443;SDS011;36370;52.216;21.142;2022-07-29T15:59:37;2.13;;;0.63;;
50443;SDS011;36370;52.216;21.142;2022-07-29T16:03:39;5.50;;;1.73;;
50443;SDS011;36370;52.216;21.142;2022-07-29T16:07:47;2.38;;;0.90;;
50443;SDS011;36370;52.216;21.142;2022-07-29T16:11:49;1.60;;;0.73;;
50443;SDS011;36370;52.216;21.142;2022-07-29T16:15:54;2.35;;;0.85;;
50443;SDS011;36370;52.216;21.142;2022-07-29T16:20:04;2.30;;;0.70;;
50443;SDS011;36370;52.216;21.142;2022-07-29T16:24:07;1.02;;;0.70;;
50443;SDS011;36370;52.216;21.142;2022-07-29T16:28:10;5.97;;;1.15;;
50443;SDS011;36370;52.216;21.142;2022-07-29T16:32:12;1.40;;;0.80;;
50443;SDS011;36370;52.216;21.142;2022-07-29T16:36:14;3.45;;;0.70;;
50443;SDS011;36370;52.216;21.142;2022-07-29T16:40:19;2.67;;;0.85;;
50443;SDS011;36370;52.216;21.142;2022-07-29T16:44:21;1.90;;;0.70;;
50443;SDS011;36370;52.216;21.142;2022-07-29T16:48:25;1.50;;;0.82;;
50443;SDS011;36370;52.216;21.142;2022-07-29T16:52:28;1.65;;;0.68;;
50443;SDS011;36370;52.216;21.142;2022-07-29T16:56:31;7.47;;;1.20;;
50443;SDS011;36370;52.216;21.142;2022-07-29T17:00:33;1.48;;;0.60;;
50443;SDS011;36370;52.216;21.142;2022-07-29T17:04:36;3.17;;;1.27;;
50443;SDS011;36370;52.216;21.142;2022-07-29T17:08:38;2.42;;;1.00;;
50443;SDS011;36370;52.216;21.142;2022-07-29T17:12:41;2.15;;;0.98;;
50443;SDS011;36370;52.216;21.142;2022-07-29T17:16:43;1.75;;;1.00;;
50443;SDS011;36370;52.216;21.142;2022-07-29T17:21:02;2.03;;;1.00;;
50443;SDS011;36370;52.216;21.142;2022-07-29T17:25:05;10.13;;;1.08;;
50443;SDS011;36370;52.216;21.142;2022-07-29T17:29:09;1.98;;;0.85;;
50443;SDS011;36370;52.216;21.142;2022-07-29T17:33:12;2.83;;;0.73;;
50443;SDS011;36370;52.216;21.142;2022-07-29T17:37:14;4.30;;;1.15;;
50443;SDS011;36370;52.216;21.142;2022-07-29T17:41:16;1.92;;;1.00;;
50443;SDS011;36370;52.216;21.142;2022-07-29T17:45:18;2.45;;;1.30;;
50443;SDS011;36370;52.216;21.142;2022-07-29T17:49:20;3.28;;;1.17;;
50443;SDS011;36370;52.216;21.142;2022-07-29T17:53:23;2.50;;;0.80;;
50443;SDS011;36370;52.216;21.142;2022-07-29T17:57:25;2.67;;;1.40;;
50443;SDS011;36370;52.216;21.142;2022-07-29T18:01:27;4.03;;;0.95;;
50443;SDS011;36370;52.216;21.142;2022-07-29T18:05:30;1.35;;;0.85;;
50443;SDS011;36370;52.216;21.142;2022-07-29T18:09:32;2.10;;;1.05;;
50443;SDS011;36370;52.216;21.142;2022-07-29T18:13:34;4.43;;;1.15;;
50443;SDS011;36370;52.216;21.142;2022-07-29T18:17:37;2.90;;;0.70;;
50443;SDS011;36370;52.216;21.142;2022-07-29T18:21:58;5.00;;;1.73;;
50443;SDS011;36370;52.216;21.142;2022-07-29T18:26:06;3.90;;;1.07;;
50443;SDS011;36370;52.216;21.142;2022-07-29T18:30:08;3.10;;;1.25;;
50443;SDS011;36370;52.216;21.142;2022-07-29T18:34:11;4.53;;;0.98;;
50443;SDS011;36370;52.216;21.142;2022-07-29T18:38:13;2.63;;;1.00;;
50443;SDS011;36370;52.216;21.142;2022-07-29T18:42:15;3.65;;;1.27;;
50443;SDS011;36370;52.216;21.142;2022-07-29T18:46:17;1.52;;;0.75;;
50443;SDS011;36370;52.216;21.142;2022-07-29T18:50:22;5.32;;;1.17;;
50443;SDS011;36370;52.216;21.142;2022-07-29T18:54:30;1.88;;;1.10;;
50443;SDS011;36370;52.216;21.142;2022-07-29T18:58:33;2.95;;;1.50;;
50443;SDS011;36370;52.216;21.142;2022-07-29T19:02:35;3.75;;;1.05;;
50443;SDS011;36370;52.216;21.142;2022-07-29T19:06:39;3.95;;;1.30;;
50443;SDS011;36370;52.216;21.142;2022-07-29T19:10:41;5.40;;;1.48;;
50443;SDS011;36370;52.216;21.142;2022-07-29T19:14:44;6.43;;;1.40;;
50443;SDS011;36370;52.216;21.142;2022-07-29T19:18:46;2.58;;;1.08;;
50443;SDS011;36370;52.216;21.142;2022-07-29T19:22:49;1.88;;;0.85;;
50443;SDS011;36370;52.216;21.142;2022-07-29T19:26:51;1.60;;;0.95;;
50443;SDS011;36370;52.216;21.142;2022-07-29T19:30:53;4.00;;;1.30;;
50443;SDS011;36370;52.216;21.142;2022-07-29T19:34:55;3.05;;;1.10;;
50443;SDS011;36370;52.216;21.142;2022-07-29T19:39:16;2.88;;;1.10;;
50443;SDS011;36370;52.216;21.142;2022-07-29T19:43:36;3.25;;;1.08;;
50443;SDS011;36370;52.216;21.142;2022-07-29T19:47:51;5.25;;;0.93;;
50443;SDS011;36370;52.216;21.142;2022-07-29T19:52:02;1.38;;;1.00;;
50443;SDS011;36370;52.216;21.142;2022-07-29T19:56:04;3.42;;;1.02;;
50443;SDS011;36370;52.216;21.142;2022-07-29T20:00:10;14.63;;;1.33;;
50443;SDS011;36370;52.216;21.142;2022-07-29T20:04:14;4.03;;;1.10;;
50443;SDS011;36370;52.216;21.142;2022-07-29T20:08:16;6.20;;;1.25;;
50443;SDS011;36370;52.216;21.142;2022-07-29T20:12:22;4.80;;;1.10;;
50443;SDS011;36370;52.216;21.142;2022-07-29T20:16:24;4.53;;;1.50;;
50443;SDS011;36370;52.216;21.142;2022-07-29T20:20:27;2.55;;;1.17;;
50443;SDS011;36370;52.216;21.142;2022-07-29T20:24:30;1.98;;;0.90;;
50443;SDS011;36370;52.216;21.142;2022-07-29T20:28:33;2.25;;;1.00;;
50443;SDS011;36370;52.216;21.142;2022-07-29T20:32:35;2.75;;;1.33;;
50443;SDS011;36370;52.216;21.142;2022-07-29T20:36:38;2.75;;;1.13;;
50443;SDS011;36370;52.216;21.142;2022-07-29T20:40:40;3.10;;;1.10;;
50443;SDS011;36370;52.216;21.142;2022-07-29T20:44:42;5.10;;;1.60;;
50443;SDS011;36370;52.216;21.142;2022-07-29T20:48:45;3.55;;;1.45;;
50443;SDS011;36370;52.216;21.142;2022-07-29T20:52:48;5.55;;;1.13;;
50443;SDS011;36370;52.216;21.142;2022-07-29T20:56:51;4.10;;;1.08;;
50443;SDS011;36370;52.216;21.142;2022-07-29T21:00:54;3.67;;;1.17;;
50443;SDS011;36370;52.216;21.142;2022-07-29T21:04:57;2.38;;;1.42;;
50443;SDS011;36370;52.216;21.142;2022-07-29T21:08:59;1.98;;;1.40;;
50443;SDS011;36370;52.216;21.142;2022-07-29T21:13:02;4.15;;;1.10;;
50443;SDS011;36370;52.216;21.142;2022-07-29T21:17:04;2.95;;;1.58;;
50443;SDS011;36370;52.216;21.142;2022-07-29T21:21:08;2.00;;;1.30;;
50443;SDS011;36370;52.216;21.142;2022-07-29T21:25:14;2.17;;;1.10;;
50443;SDS011;36370;52.216;21.142;2022-07-29T21:29:16;2.35;;;1.27;;
50443;SDS011;36370;52.216;21.142;2022-07-29T21:33:19;2.50;;;1.35;;
50443;SDS011;36370;52.216;21.142;2022-07-29T21:37:21;1.30;;;0.77;;
50443;SDS011;36370;52.216;21.142;2022-07-29T21:41:24;2.70;;;1.65;;
50443;SDS011;36370;52.216;21.142;2022-07-29T21:45:26;4.03;;;1.15;;
50443;SDS011;36370;52.216;21.142;2022-07-29T21:49:28;5.70;;;1.20;;
50443;SDS011;36370;52.216;21.142;2022-07-29T21:53:31;3.80;;;1.45;;
50443;SDS011;36370;52.216;21.142;2022-07-29T21:57:33;3.25;;;1.40;;
50443;SDS011;36370;52.216;21.142;2022-07-29T22:01:35;2.10;;;1.10;;
50443;SDS011;36370;52.216;21.142;2022-07-29T22:05:40;9.93;;;1.80;;
50443;SDS011;36370;52.216;21.142;2022-07-29T22:09:42;3.67;;;1.67;;
50443;SDS011;36370;52.216;21.142;2022-07-29T22:13:44;1.05;;;0.85;;
50443;SDS011;36370;52.216;21.142;2022-07-29T22:17:47;3.47;;;1.30;;
50443;SDS011;36370;52.216;21.142;2022-07-29T22:21:49;6.00;;;1.50;;
50443;SDS011;36370;52.216;21.142;2022-07-29T22:25:52;3.05;;;1.50;;
50443;SDS011;36370;52.216;21.142;2022-07-29T22:29:54;1.77;;;1.10;;
50443;SDS011;36370;52.216;21.142;2022-07-29T22:33:57;2.05;;;1.20;;
50443;SDS011;36370;52.216;21.142;2022-07-29T22:37:59;3.15;;;1.02;;
50443;SDS011;36370;52.216;21.142;2022-07-29T22:42:01;4.90;;;1.33;;
50443;SDS011;36370;52.216;21.142;2022-07-29T22:46:03;2.95;;;0.98;;
50443;SDS011;36370;52.216;21.142;2022-07-29T22:50:06;3.42;;;1.58;;
50443;SDS011;36370;52.216;21.142;2022-07-29T22:54:09;2.20;;;1.33;;
50443;SDS011;36370;52.216;21.142;2022-07-29T22:58:11;2.88;;;1.40;;
50443;SDS011;36370;52.216;21.142;2022-07-29T23:02:13;4.53;;;1.58;;
50443;SDS011;36370;52.216;21.142;2022-07-29T23:06:15;6.78;;;1.75;;
50443;SDS011;36370;52.216;21.142;2022-07-29T23:10:18;3.78;;;1.40;;
50443;SDS011;36370;52.216;21.142;2022-07-29T23:14:21;3.25;;;1.30;;
50443;SDS011;36370;52.216;21.142;2022-07-29T23:18:23;3.22;;;1.35;;
50443;SDS011;36370;52.216;21.142;2022-07-29T23:22:26;2.67;;;1.23;;
50443;SDS011;36370;52.216;21.142;2022-07-29T23:26:28;2.97;;;1.30;;
50443;SDS011;36370;52.216;21.142;2022-07-29T23:30:30;2.45;;;1.20;;
50443;SDS011;36370;52.216;21.142;2022-07-29T23:34:33;2.72;;;1.23;;
50443;SDS011;36370;52.216;21.142;2022-07-29T23:38:37;3.70;;;1.58;;
50443;SDS011;36370;52.216;21.142;2022-07-29T23:42:42;3.28;;;1.48;;
50443;SDS011;36370;52.216;21.142;2022-07-29T23:46:44;2.28;;;1.17;;
50443;SDS011;36370;52.216;21.142;2022-07-29T23:50:47;7.28;;;1.30;;
50443;SDS011;36370;52.216;21.142;2022-07-29T23:54:49;2.13;;;1.20;;
50443;SDS011;36370;52.216;21.142;2022-07-29T23:58:52;2.08;;;1.08;;
